sensor_id;sensor_type;location;lat;lon;timestamp;P1;durP1;ratioP1;P2;durP2;ratioP2
22841;SDS011;11587;47.064;15.444;2022-08-05T00:02:09;3.55;;;2.97;;
22841;SDS011;11587;47.064;15.444;2022-08-05T00:04:35;3.20;;;2.70;;
22841;SDS011;11587;47.064;15.444;2022-08-05T00:07:01;3.78;;;2.90;;
22841;SDS011;11587;47.064;15.444;2022-08-05T00:09:27;4.30;;;3.00;;
22841;SDS011;11587;47.064;15.444;2022-08-05T00:11:53;4.20;;;3.00;;
22841;SDS011;11587;47.064;15.444;2022-08-05T00:19:10;4.00;;;3.00;;
22841;SDS011;11587;47.064;15.444;2022-08-05T00:21:36;4.22;;;3.00;;
22841;SDS011;11587;47.064;15.444;2022-08-05T00:24:02;3.30;;;3.00;;
22841;SDS011;11587;47.064;15.444;2022-08-05T00:31:20;4.10;;;3.10;;
22841;SDS011;11587;47.064;15.444;2022-08-05T00:33:46;4.55;;;2.90;;
22841;SDS011;11587;47.064;15.444;2022-08-05T00:36:11;3.23;;;2.90;;
22841;SDS011;11587;47.064;15.444;2022-08-05T00:38:38;3.30;;;3.00;;
22841;SDS011;11587;47.064;15.444;2022-08-05T00:41:04;4.90;;;3.10;;
22841;SDS011;11587;47.064;15.444;2022-08-05T00:46:00;3.60;;;3.00;;
22841;SDS011;11587;47.064;15.444;2022-08-05T00:48:26;4.72;;;2.80;;
22841;SDS011;11587;47.064;15.444;2022-08-05T00:50:52;3.55;;;2.90;;
22841;SDS011;11587;47.064;15.444;2022-08-05T00:58:12;5.27;;;3.10;;
22841;SDS011;11587;47.064;15.444;2022-08-05T01:00:41;3.40;;;3.10;;
22841;SDS011;11587;47.064;15.444;2022-08-05T01:03:08;4.40;;;3.00;;
22841;SDS011;11587;47.064;15.444;2022-08-05T01:05:35;4.43;;;3.30;;
22841;SDS011;11587;47.064;15.444;2022-08-05T01:10:33;3.85;;;3.10;;
22841;SDS011;11587;47.064;15.444;2022-08-05T01:13:23;3.40;;;3.03;;
22841;SDS011;11587;47.064;15.444;2022-08-05T01:15:55;3.70;;;3.10;;
22841;SDS011;11587;47.064;15.444;2022-08-05T01:18:28;3.45;;;3.15;;
22841;SDS011;11587;47.064;15.444;2022-08-05T01:24:00;3.87;;;3.07;;
22841;SDS011;11587;47.064;15.444;2022-08-05T01:27:02;6.07;;;3.40;;
22841;SDS011;11587;47.064;15.444;2022-08-05T01:29:42;3.40;;;3.10;;
22841;SDS011;11587;47.064;15.444;2022-08-05T01:32:11;4.25;;;2.95;;
22841;SDS011;11587;47.064;15.444;2022-08-05T01:34:46;3.70;;;3.38;;
22841;SDS011;11587;47.064;15.444;2022-08-05T01:39:45;5.38;;;3.22;;
22841;SDS011;11587;47.064;15.444;2022-08-05T01:42:14;3.70;;;3.22;;
22841;SDS011;11587;47.064;15.444;2022-08-05T01:44:43;4.60;;;3.30;;
22841;SDS011;11587;47.064;15.444;2022-08-05T01:47:11;3.30;;;2.97;;
22841;SDS011;11587;47.064;15.444;2022-08-05T01:52:06;3.50;;;3.20;;
22841;SDS011;11587;47.064;15.444;2022-08-05T01:54:37;5.32;;;3.47;;
22841;SDS011;11587;47.064;15.444;2022-08-05T01:57:07;4.10;;;3.40;;
22841;SDS011;11587;47.064;15.444;2022-08-05T01:59:35;3.88;;;3.17;;
22841;SDS011;11587;47.064;15.444;2022-08-05T02:02:03;4.03;;;3.22;;
22841;SDS011;11587;47.064;15.444;2022-08-05T02:06:57;5.40;;;3.63;;
22841;SDS011;11587;47.064;15.444;2022-08-05T02:09:23;4.40;;;3.80;;
22841;SDS011;11587;47.064;15.444;2022-08-05T02:11:54;4.63;;;3.78;;
22841;SDS011;11587;47.064;15.444;2022-08-05T02:14:27;4.72;;;3.60;;
22841;SDS011;11587;47.064;15.444;2022-08-05T02:21:53;3.88;;;3.40;;
22841;SDS011;11587;47.064;15.444;2022-08-05T02:24:31;3.83;;;3.50;;
22841;SDS011;11587;47.064;15.444;2022-08-05T02:27:02;3.80;;;3.40;;
22841;SDS011;11587;47.064;15.444;2022-08-05T02:29:30;4.95;;;3.58;;
22841;SDS011;11587;47.064;15.444;2022-08-05T02:31:59;5.35;;;3.40;;
22841;SDS011;11587;47.064;15.444;2022-08-05T02:34:27;4.28;;;3.63;;
22841;SDS011;11587;47.064;15.444;2022-08-05T02:39:25;4.77;;;3.10;;
22841;SDS011;11587;47.064;15.444;2022-08-05T02:41:58;4.45;;;3.50;;
22841;SDS011;11587;47.064;15.444;2022-08-05T02:44:27;4.70;;;3.10;;
22841;SDS011;11587;47.064;15.444;2022-08-05T02:46:55;5.67;;;3.50;;
22841;SDS011;11587;47.064;15.444;2022-08-05T02:51:47;3.93;;;3.20;;
22841;SDS011;11587;47.064;15.444;2022-08-05T02:54:15;3.50;;;3.13;;
22841;SDS011;11587;47.064;15.444;2022-08-05T02:56:42;4.22;;;3.22;;
22841;SDS011;11587;47.064;15.444;2022-08-05T02:59:09;4.38;;;3.20;;
22841;SDS011;11587;47.064;15.444;2022-08-05T03:01:36;3.50;;;3.20;;
22841;SDS011;11587;47.064;15.444;2022-08-05T03:04:05;3.70;;;3.30;;
22841;SDS011;11587;47.064;15.444;2022-08-05T03:06:35;4.32;;;3.10;;
22841;SDS011;11587;47.064;15.444;2022-08-05T03:09:03;4.00;;;3.30;;
22841;SDS011;11587;47.064;15.444;2022-08-05T03:11:30;3.90;;;3.33;;
22841;SDS011;11587;47.064;15.444;2022-08-05T03:13:56;3.80;;;3.15;;
22841;SDS011;11587;47.064;15.444;2022-08-05T03:21:12;5.35;;;3.83;;
22841;SDS011;11587;47.064;15.444;2022-08-05T03:23:38;5.40;;;4.00;;
22841;SDS011;11587;47.064;15.444;2022-08-05T03:26:06;6.32;;;4.00;;
22841;SDS011;11587;47.064;15.444;2022-08-05T03:28:33;4.90;;;3.92;;
22841;SDS011;11587;47.064;15.444;2022-08-05T03:33:25;4.57;;;3.70;;
22841;SDS011;11587;47.064;15.444;2022-08-05T03:35:52;5.32;;;3.80;;
22841;SDS011;11587;47.064;15.444;2022-08-05T03:38:25;5.18;;;3.45;;
22841;SDS011;11587;47.064;15.444;2022-08-05T03:40:51;4.95;;;3.90;;
22841;SDS011;11587;47.064;15.444;2022-08-05T03:43:17;4.35;;;3.50;;
22841;SDS011;11587;47.064;15.444;2022-08-05T03:48:10;6.75;;;3.97;;
22841;SDS011;11587;47.064;15.444;2022-08-05T03:50:56;5.47;;;4.30;;
22841;SDS011;11587;47.064;15.444;2022-08-05T03:56:43;5.97;;;4.90;;
22841;SDS011;11587;47.064;15.444;2022-08-05T03:59:20;5.90;;;4.93;;
22841;SDS011;11587;47.064;15.444;2022-08-05T04:01:51;6.25;;;4.60;;
22841;SDS011;11587;47.064;15.444;2022-08-05T04:04:19;5.57;;;4.60;;
22841;SDS011;11587;47.064;15.444;2022-08-05T04:06:46;6.72;;;4.90;;
22841;SDS011;11587;47.064;15.444;2022-08-05T04:09:13;7.93;;;5.17;;
22841;SDS011;11587;47.064;15.444;2022-08-05T04:11:40;7.93;;;5.30;;
22841;SDS011;11587;47.064;15.444;2022-08-05T04:14:07;7.60;;;5.32;;
22841;SDS011;11587;47.064;15.444;2022-08-05T04:16:33;9.07;;;5.20;;
22841;SDS011;11587;47.064;15.444;2022-08-05T04:19:02;7.60;;;5.35;;
22841;SDS011;11587;47.064;15.444;2022-08-05T04:21:29;7.97;;;5.55;;
22841;SDS011;11587;47.064;15.444;2022-08-05T04:23:55;9.32;;;5.80;;
22841;SDS011;11587;47.064;15.444;2022-08-05T04:26:24;9.10;;;5.93;;
22841;SDS011;11587;47.064;15.444;2022-08-05T04:28:50;6.70;;;4.65;;
22841;SDS011;11587;47.064;15.444;2022-08-05T04:31:16;5.32;;;4.13;;
22841;SDS011;11587;47.064;15.444;2022-08-05T04:33:42;4.77;;;3.87;;
22841;SDS011;11587;47.064;15.444;2022-08-05T04:36:08;4.67;;;3.70;;
22841;SDS011;11587;47.064;15.444;2022-08-05T04:38:36;4.27;;;3.77;;
22841;SDS011;11587;47.064;15.444;2022-08-05T04:41:02;5.53;;;3.70;;
22841;SDS011;11587;47.064;15.444;2022-08-05T04:43:28;7.03;;;3.88;;
22841;SDS011;11587;47.064;15.444;2022-08-05T04:50:48;6.17;;;4.20;;
22841;SDS011;11587;47.064;15.444;2022-08-05T04:53:15;6.15;;;4.13;;
22841;SDS011;11587;47.064;15.444;2022-08-05T04:55:42;8.48;;;5.70;;
22841;SDS011;11587;47.064;15.444;2022-08-05T05:03:00;8.55;;;5.80;;
22841;SDS011;11587;47.064;15.444;2022-08-05T05:05:27;7.97;;;5.95;;
22841;SDS011;11587;47.064;15.444;2022-08-05T05:07:54;8.40;;;6.25;;
22841;SDS011;11587;47.064;15.444;2022-08-05T05:10:24;9.60;;;6.40;;
22841;SDS011;11587;47.064;15.444;2022-08-05T05:15:15;9.25;;;6.40;;
22841;SDS011;11587;47.064;15.444;2022-08-05T05:17:42;8.33;;;5.57;;
22841;SDS011;11587;47.064;15.444;2022-08-05T05:20:08;9.45;;;6.00;;
22841;SDS011;11587;47.064;15.444;2022-08-05T05:22:35;8.00;;;5.90;;
22841;SDS011;11587;47.064;15.444;2022-08-05T05:25:01;8.93;;;6.20;;
22841;SDS011;11587;47.064;15.444;2022-08-05T05:29:53;9.27;;;6.10;;
22841;SDS011;11587;47.064;15.444;2022-08-05T05:32:19;10.00;;;6.55;;
22841;SDS011;11587;47.064;15.444;2022-08-05T05:34:45;13.88;;;6.50;;
22841;SDS011;11587;47.064;15.444;2022-08-05T05:37:11;9.27;;;6.20;;
22841;SDS011;11587;47.064;15.444;2022-08-05T05:42:04;10.27;;;6.50;;
22841;SDS011;11587;47.064;15.444;2022-08-05T05:44:30;16.85;;;6.55;;
22841;SDS011;11587;47.064;15.444;2022-08-05T05:46:56;11.77;;;6.80;;
22841;SDS011;11587;47.064;15.444;2022-08-05T05:49:22;11.82;;;6.20;;
22841;SDS011;11587;47.064;15.444;2022-08-05T05:56:39;11.80;;;6.40;;
22841;SDS011;11587;47.064;15.444;2022-08-05T05:59:05;10.30;;;6.45;;
22841;SDS011;11587;47.064;15.444;2022-08-05T06:01:35;10.00;;;6.07;;
22841;SDS011;11587;47.064;15.444;2022-08-05T06:04:03;8.45;;;6.30;;
22841;SDS011;11587;47.064;15.444;2022-08-05T06:06:37;11.15;;;6.38;;
22841;SDS011;11587;47.064;15.444;2022-08-05T06:11:29;12.97;;;6.13;;
22841;SDS011;11587;47.064;15.444;2022-08-05T06:13:55;9.32;;;6.07;;
22841;SDS011;11587;47.064;15.444;2022-08-05T06:16:22;8.10;;;6.17;;
22841;SDS011;11587;47.064;15.444;2022-08-05T06:23:39;8.83;;;5.70;;
22841;SDS011;11587;47.064;15.444;2022-08-05T06:26:05;12.27;;;6.00;;
22841;SDS011;11587;47.064;15.444;2022-08-05T06:28:31;8.75;;;5.55;;
22841;SDS011;11587;47.064;15.444;2022-08-05T06:30:57;8.20;;;5.53;;
22841;SDS011;11587;47.064;15.444;2022-08-05T06:35:48;7.38;;;5.20;;
22841;SDS011;11587;47.064;15.444;2022-08-05T06:38:14;11.30;;;5.70;;
22841;SDS011;11587;47.064;15.444;2022-08-05T06:40:42;9.63;;;5.57;;
22841;SDS011;11587;47.064;15.444;2022-08-05T06:43:08;8.45;;;5.22;;
22841;SDS011;11587;47.064;15.444;2022-08-05T06:45:34;9.07;;;5.20;;
22841;SDS011;11587;47.064;15.444;2022-08-05T06:50:26;8.13;;;4.97;;
22841;SDS011;11587;47.064;15.444;2022-08-05T06:52:52;8.98;;;5.78;;
22841;SDS011;11587;47.064;15.444;2022-08-05T06:55:18;7.75;;;5.20;;
22841;SDS011;11587;47.064;15.444;2022-08-05T06:57:43;10.70;;;5.65;;
22841;SDS011;11587;47.064;15.444;2022-08-05T07:02:44;9.25;;;5.35;;
22841;SDS011;11587;47.064;15.444;2022-08-05T07:05:11;7.75;;;5.28;;
22841;SDS011;11587;47.064;15.444;2022-08-05T07:07:38;8.65;;;5.25;;
22841;SDS011;11587;47.064;15.444;2022-08-05T07:10:05;8.38;;;4.80;;
22841;SDS011;11587;47.064;15.444;2022-08-05T07:14:57;7.65;;;5.07;;
22841;SDS011;11587;47.064;15.444;2022-08-05T07:17:42;8.25;;;4.78;;
22841;SDS011;11587;47.064;15.444;2022-08-05T07:20:08;8.30;;;5.03;;
22841;SDS011;11587;47.064;15.444;2022-08-05T07:22:34;7.57;;;4.40;;
22841;SDS011;11587;47.064;15.444;2022-08-05T07:25:00;8.15;;;4.72;;
22841;SDS011;11587;47.064;15.444;2022-08-05T07:27:26;8.23;;;4.53;;
22841;SDS011;11587;47.064;15.444;2022-08-05T07:32:18;8.30;;;4.28;;
22841;SDS011;11587;47.064;15.444;2022-08-05T07:34:43;6.70;;;4.30;;
22841;SDS011;11587;47.064;15.444;2022-08-05T07:37:09;5.82;;;4.30;;
22841;SDS011;11587;47.064;15.444;2022-08-05T07:39:35;5.43;;;3.90;;
22841;SDS011;11587;47.064;15.444;2022-08-05T07:42:01;6.47;;;4.23;;
22841;SDS011;11587;47.064;15.444;2022-08-05T07:44:28;8.25;;;4.20;;
22841;SDS011;11587;47.064;15.444;2022-08-05T07:46:54;6.55;;;4.53;;
22841;SDS011;11587;47.064;15.444;2022-08-05T07:49:20;6.37;;;4.27;;
22841;SDS011;11587;47.064;15.444;2022-08-05T07:51:45;5.25;;;4.13;;
22841;SDS011;11587;47.064;15.444;2022-08-05T07:59:02;5.40;;;4.13;;
22841;SDS011;11587;47.064;15.444;2022-08-05T08:01:28;7.47;;;4.17;;
22841;SDS011;11587;47.064;15.444;2022-08-05T08:03:54;8.05;;;4.18;;
22841;SDS011;11587;47.064;15.444;2022-08-05T08:06:20;6.40;;;4.20;;
22841;SDS011;11587;47.064;15.444;2022-08-05T08:08:46;6.87;;;4.30;;
22841;SDS011;11587;47.064;15.444;2022-08-05T08:11:12;5.82;;;4.10;;
22841;SDS011;11587;47.064;15.444;2022-08-05T08:13:39;8.65;;;4.30;;
22841;SDS011;11587;47.064;15.444;2022-08-05T08:16:06;8.45;;;4.63;;
22841;SDS011;11587;47.064;15.444;2022-08-05T08:18:32;7.53;;;4.30;;
22841;SDS011;11587;47.064;15.444;2022-08-05T08:25:49;5.50;;;4.07;;
22841;SDS011;11587;47.064;15.444;2022-08-05T08:28:15;5.60;;;4.07;;
22841;SDS011;11587;47.064;15.444;2022-08-05T08:30:41;6.80;;;3.60;;
22841;SDS011;11587;47.064;15.444;2022-08-05T08:33:10;5.23;;;3.63;;
22841;SDS011;11587;47.064;15.444;2022-08-05T08:35:36;4.95;;;3.47;;
22841;SDS011;11587;47.064;15.444;2022-08-05T08:38:03;6.35;;;3.50;;
22841;SDS011;11587;47.064;15.444;2022-08-05T08:40:32;6.88;;;3.35;;
22841;SDS011;11587;47.064;15.444;2022-08-05T08:43:00;6.90;;;3.60;;
22841;SDS011;11587;47.064;15.444;2022-08-05T08:45:27;5.03;;;3.20;;
22841;SDS011;11587;47.064;15.444;2022-08-05T08:47:55;7.05;;;3.40;;
22841;SDS011;11587;47.064;15.444;2022-08-05T08:52:52;5.83;;;3.47;;
22841;SDS011;11587;47.064;15.444;2022-08-05T08:55:23;6.87;;;3.37;;
22841;SDS011;11587;47.064;15.444;2022-08-05T08:57:49;5.35;;;3.50;;
22841;SDS011;11587;47.064;15.444;2022-08-05T09:00:15;4.30;;;3.30;;
22841;SDS011;11587;47.064;15.444;2022-08-05T09:02:43;5.90;;;3.47;;
22841;SDS011;11587;47.064;15.444;2022-08-05T09:05:10;3.80;;;3.30;;
22841;SDS011;11587;47.064;15.444;2022-08-05T09:07:36;4.72;;;3.30;;
22841;SDS011;11587;47.064;15.444;2022-08-05T09:10:03;6.40;;;3.50;;
22841;SDS011;11587;47.064;15.444;2022-08-05T09:12:29;4.45;;;3.30;;
22841;SDS011;11587;47.064;15.444;2022-08-05T09:15:00;5.05;;;3.38;;
22841;SDS011;11587;47.064;15.444;2022-08-05T09:19:55;6.53;;;3.20;;
22841;SDS011;11587;47.064;15.444;2022-08-05T09:22:21;4.90;;;3.45;;
22841;SDS011;11587;47.064;15.444;2022-08-05T09:24:57;4.70;;;3.40;;
22841;SDS011;11587;47.064;15.444;2022-08-05T09:27:33;5.82;;;3.60;;
22841;SDS011;11587;47.064;15.444;2022-08-05T09:30:03;5.00;;;3.47;;
22841;SDS011;11587;47.064;15.444;2022-08-05T09:32:37;3.70;;;3.20;;
22841;SDS011;11587;47.064;15.444;2022-08-05T09:35:10;3.72;;;3.30;;
22841;SDS011;11587;47.064;15.444;2022-08-05T09:37:50;6.27;;;3.50;;
22841;SDS011;11587;47.064;15.444;2022-08-05T09:43:05;5.32;;;3.58;;
22841;SDS011;11587;47.064;15.444;2022-08-05T09:45:38;4.05;;;3.45;;
22841;SDS011;11587;47.064;15.444;2022-08-05T09:48:25;4.95;;;3.50;;
22841;SDS011;11587;47.064;15.444;2022-08-05T09:50:52;4.38;;;3.30;;
22841;SDS011;11587;47.064;15.444;2022-08-05T09:58:13;4.40;;;3.23;;
22841;SDS011;11587;47.064;15.444;2022-08-05T10:00:50;4.72;;;3.20;;
22841;SDS011;11587;47.064;15.444;2022-08-05T10:03:28;4.38;;;3.20;;
22841;SDS011;11587;47.064;15.444;2022-08-05T10:06:07;4.57;;;2.90;;
22841;SDS011;11587;47.064;15.444;2022-08-05T10:08:35;5.50;;;3.08;;
22841;SDS011;11587;47.064;15.444;2022-08-05T10:11:03;5.88;;;3.05;;
22841;SDS011;11587;47.064;15.444;2022-08-05T10:16:04;4.90;;;3.23;;
22841;SDS011;11587;47.064;15.444;2022-08-05T10:18:31;3.77;;;3.20;;
22841;SDS011;11587;47.064;15.444;2022-08-05T10:20:59;4.50;;;3.00;;
22841;SDS011;11587;47.064;15.444;2022-08-05T10:28:20;5.03;;;3.17;;
22841;SDS011;11587;47.064;15.444;2022-08-05T10:30:47;4.35;;;3.17;;
22841;SDS011;11587;47.064;15.444;2022-08-05T10:33:13;4.77;;;3.27;;
22841;SDS011;11587;47.064;15.444;2022-08-05T10:35:39;4.80;;;3.08;;
22841;SDS011;11587;47.064;15.444;2022-08-05T10:38:05;4.55;;;3.10;;
22841;SDS011;11587;47.064;15.444;2022-08-05T10:43:10;4.43;;;2.90;;
22841;SDS011;11587;47.064;15.444;2022-08-05T10:45:57;6.03;;;3.45;;
22841;SDS011;11587;47.064;15.444;2022-08-05T10:48:31;3.63;;;3.30;;
22841;SDS011;11587;47.064;15.444;2022-08-05T10:51:09;3.85;;;3.10;;
22841;SDS011;11587;47.064;15.444;2022-08-05T10:53:58;5.25;;;3.00;;
22841;SDS011;11587;47.064;15.444;2022-08-05T10:56:25;3.10;;;2.80;;
22841;SDS011;11587;47.064;15.444;2022-08-05T11:01:28;3.30;;;2.77;;
22841;SDS011;11587;47.064;15.444;2022-08-05T11:04:09;3.28;;;2.78;;
22841;SDS011;11587;47.064;15.444;2022-08-05T11:18:05;7.20;;;2.70;;
22841;SDS011;11587;47.064;15.444;2022-08-05T11:20:49;4.22;;;2.70;;
22841;SDS011;11587;47.064;15.444;2022-08-05T11:23:26;2.90;;;2.60;;
22841;SDS011;11587;47.064;15.444;2022-08-05T11:36:06;3.33;;;2.70;;
22841;SDS011;11587;47.064;15.444;2022-08-05T11:41:24;4.83;;;2.60;;
22841;SDS011;11587;47.064;15.444;2022-08-05T11:48:50;3.40;;;2.40;;
22841;SDS011;11587;47.064;15.444;2022-08-05T11:51:16;3.17;;;2.30;;
22841;SDS011;11587;47.064;15.444;2022-08-05T11:53:42;2.78;;;2.00;;
22841;SDS011;11587;47.064;15.444;2022-08-05T11:56:09;3.33;;;2.20;;
22841;SDS011;11587;47.064;15.444;2022-08-05T12:01:22;2.07;;;1.87;;
22841;SDS011;11587;47.064;15.444;2022-08-05T12:03:50;2.60;;;2.00;;
22841;SDS011;11587;47.064;15.444;2022-08-05T12:06:22;4.07;;;1.80;;
22841;SDS011;11587;47.064;15.444;2022-08-05T12:08:50;4.57;;;2.00;;
22841;SDS011;11587;47.064;15.444;2022-08-05T12:11:19;2.30;;;1.73;;
22841;SDS011;11587;47.064;15.444;2022-08-05T12:18:38;5.20;;;1.70;;
22841;SDS011;11587;47.064;15.444;2022-08-05T12:21:11;2.63;;;1.60;;
22841;SDS011;11587;47.064;15.444;2022-08-05T12:23:39;1.70;;;1.55;;
22841;SDS011;11587;47.064;15.444;2022-08-05T12:26:15;6.82;;;2.00;;
22841;SDS011;11587;47.064;15.444;2022-08-05T12:31:09;2.40;;;1.60;;
22841;SDS011;11587;47.064;15.444;2022-08-05T12:33:35;2.72;;;1.60;;
22841;SDS011;11587;47.064;15.444;2022-08-05T12:36:02;4.07;;;1.60;;
22841;SDS011;11587;47.064;15.444;2022-08-05T12:38:29;4.10;;;1.70;;
22841;SDS011;11587;47.064;15.444;2022-08-05T12:40:56;2.42;;;1.30;;
22841;SDS011;11587;47.064;15.444;2022-08-05T12:43:22;2.42;;;1.50;;
22841;SDS011;11587;47.064;15.444;2022-08-05T12:48:13;4.10;;;1.53;;
22841;SDS011;11587;47.064;15.444;2022-08-05T12:50:39;3.17;;;1.50;;
22841;SDS011;11587;47.064;15.444;2022-08-05T12:53:05;2.60;;;1.52;;
22841;SDS011;11587;47.064;15.444;2022-08-05T13:00:23;4.70;;;1.57;;
22841;SDS011;11587;47.064;15.444;2022-08-05T13:02:53;2.57;;;1.50;;
22841;SDS011;11587;47.064;15.444;2022-08-05T13:05:20;2.40;;;1.40;;
22841;SDS011;11587;47.064;15.444;2022-08-05T13:07:48;3.22;;;1.50;;
22841;SDS011;11587;47.064;15.444;2022-08-05T13:12:40;1.70;;;1.40;;
22841;SDS011;11587;47.064;15.444;2022-08-05T13:15:11;2.92;;;1.40;;
22841;SDS011;11587;47.064;15.444;2022-08-05T13:17:38;1.63;;;1.40;;
22841;SDS011;11587;47.064;15.444;2022-08-05T13:20:08;2.00;;;1.40;;
22841;SDS011;11587;47.064;15.444;2022-08-05T13:22:46;2.13;;;1.50;;
22841;SDS011;11587;47.064;15.444;2022-08-05T13:30:05;3.60;;;1.70;;
22841;SDS011;11587;47.064;15.444;2022-08-05T13:32:33;4.30;;;1.70;;
22841;SDS011;11587;47.064;15.444;2022-08-05T13:34:59;2.10;;;1.50;;
22841;SDS011;11587;47.064;15.444;2022-08-05T13:42:16;5.27;;;1.63;;
22841;SDS011;11587;47.064;15.444;2022-08-05T13:44:42;2.10;;;1.70;;
22841;SDS011;11587;47.064;15.444;2022-08-05T13:47:08;2.85;;;1.85;;
22841;SDS011;11587;47.064;15.444;2022-08-05T13:49:33;2.95;;;1.40;;
22841;SDS011;11587;47.064;15.444;2022-08-05T13:54:25;2.97;;;1.42;;
22841;SDS011;11587;47.064;15.444;2022-08-05T13:56:51;3.08;;;1.60;;
22841;SDS011;11587;47.064;15.444;2022-08-05T13:59:18;1.90;;;1.38;;
22841;SDS011;11587;47.064;15.444;2022-08-05T14:01:45;2.80;;;1.40;;
22841;SDS011;11587;47.064;15.444;2022-08-05T14:04:10;2.92;;;1.58;;
22841;SDS011;11587;47.064;15.444;2022-08-05T14:06:55;1.90;;;1.20;;
22841;SDS011;11587;47.064;15.444;2022-08-05T14:11:46;2.33;;;1.30;;
22841;SDS011;11587;47.064;15.444;2022-08-05T14:14:12;3.05;;;1.40;;
22841;SDS011;11587;47.064;15.444;2022-08-05T14:16:38;1.88;;;1.70;;
22841;SDS011;11587;47.064;15.444;2022-08-05T14:23:55;3.53;;;2.20;;
22841;SDS011;11587;47.064;15.444;2022-08-05T14:26:21;4.70;;;2.03;;
22841;SDS011;11587;47.064;15.444;2022-08-05T14:28:47;3.80;;;2.10;;
22841;SDS011;11587;47.064;15.444;2022-08-05T14:31:13;3.00;;;2.20;;
22841;SDS011;11587;47.064;15.444;2022-08-05T14:33:38;3.28;;;2.70;;
22841;SDS011;11587;47.064;15.444;2022-08-05T14:36:04;3.85;;;2.70;;
22841;SDS011;11587;47.064;15.444;2022-08-05T14:38:30;4.97;;;3.10;;
22841;SDS011;11587;47.064;15.444;2022-08-05T14:40:57;3.90;;;2.90;;
22841;SDS011;11587;47.064;15.444;2022-08-05T14:43:23;2.60;;;2.40;;
22841;SDS011;11587;47.064;15.444;2022-08-05T14:50:40;3.20;;;2.80;;
22841;SDS011;11587;47.064;15.444;2022-08-05T14:53:06;4.10;;;2.80;;
22841;SDS011;11587;47.064;15.444;2022-08-05T14:55:32;3.20;;;2.50;;
22841;SDS011;11587;47.064;15.444;2022-08-05T15:00:23;3.27;;;2.67;;
22841;SDS011;11587;47.064;15.444;2022-08-05T15:02:49;5.40;;;2.70;;
22841;SDS011;11587;47.064;15.444;2022-08-05T15:05:15;2.90;;;2.47;;
22841;SDS011;11587;47.064;15.444;2022-08-05T15:07:41;2.95;;;2.65;;
22841;SDS011;11587;47.064;15.444;2022-08-05T15:10:07;4.10;;;2.70;;
22841;SDS011;11587;47.064;15.444;2022-08-05T15:14:59;4.05;;;2.67;;
22841;SDS011;11587;47.064;15.444;2022-08-05T15:17:24;5.93;;;3.10;;
22841;SDS011;11587;47.064;15.444;2022-08-05T15:19:50;4.68;;;2.95;;
22841;SDS011;11587;47.064;15.444;2022-08-05T15:22:16;5.85;;;3.13;;
22841;SDS011;11587;47.064;15.444;2022-08-05T15:24:42;4.05;;;2.72;;
22841;SDS011;11587;47.064;15.444;2022-08-05T15:29:34;3.77;;;2.60;;
22841;SDS011;11587;47.064;15.444;2022-08-05T15:32:00;2.92;;;2.58;;
22841;SDS011;11587;47.064;15.444;2022-08-05T15:34:26;3.60;;;2.70;;
22841;SDS011;11587;47.064;15.444;2022-08-05T15:41:46;4.13;;;3.17;;
22841;SDS011;11587;47.064;15.444;2022-08-05T15:44:12;7.15;;;3.35;;
22841;SDS011;11587;47.064;15.444;2022-08-05T15:46:38;3.47;;;3.10;;
22841;SDS011;11587;47.064;15.444;2022-08-05T15:49:03;4.30;;;2.97;;
22841;SDS011;11587;47.064;15.444;2022-08-05T15:53:55;5.87;;;3.13;;
22841;SDS011;11587;47.064;15.444;2022-08-05T15:56:21;3.70;;;2.78;;
22841;SDS011;11587;47.064;15.444;2022-08-05T15:58:47;4.50;;;2.80;;
22841;SDS011;11587;47.064;15.444;2022-08-05T16:01:13;4.45;;;3.20;;
22841;SDS011;11587;47.064;15.444;2022-08-05T16:06:05;3.23;;;2.90;;
22841;SDS011;11587;47.064;15.444;2022-08-05T16:08:32;4.23;;;2.80;;
22841;SDS011;11587;47.064;15.444;2022-08-05T16:10:58;3.28;;;2.70;;
22841;SDS011;11587;47.064;15.444;2022-08-05T16:13:24;3.42;;;2.85;;
22841;SDS011;11587;47.064;15.444;2022-08-05T16:15:50;4.03;;;2.80;;
22841;SDS011;11587;47.064;15.444;2022-08-05T16:23:07;3.05;;;2.47;;
22841;SDS011;11587;47.064;15.444;2022-08-05T16:25:33;3.20;;;2.57;;
22841;SDS011;11587;47.064;15.444;2022-08-05T16:28:02;3.58;;;2.47;;
22841;SDS011;11587;47.064;15.444;2022-08-05T16:30:29;5.00;;;2.50;;
22841;SDS011;11587;47.064;15.444;2022-08-05T16:32:56;3.40;;;2.88;;
22841;SDS011;11587;47.064;15.444;2022-08-05T16:35:23;4.57;;;3.08;;
22841;SDS011;11587;47.064;15.444;2022-08-05T16:37:49;5.10;;;2.70;;
22841;SDS011;11587;47.064;15.444;2022-08-05T16:40:15;3.67;;;2.63;;
22841;SDS011;11587;47.064;15.444;2022-08-05T16:42:41;4.25;;;2.90;;
22841;SDS011;11587;47.064;15.444;2022-08-05T16:47:32;4.00;;;2.70;;
22841;SDS011;11587;47.064;15.444;2022-08-05T16:49:58;4.53;;;2.70;;
22841;SDS011;11587;47.064;15.444;2022-08-05T16:52:24;4.32;;;2.67;;
22841;SDS011;11587;47.064;15.444;2022-08-05T16:54:50;4.20;;;2.67;;
22841;SDS011;11587;47.064;15.444;2022-08-05T16:57:16;4.63;;;2.70;;
22841;SDS011;11587;47.064;15.444;2022-08-05T17:02:13;4.10;;;2.80;;
22841;SDS011;11587;47.064;15.444;2022-08-05T17:04:39;4.70;;;3.03;;
22841;SDS011;11587;47.064;15.444;2022-08-05T17:07:05;4.07;;;3.17;;
22841;SDS011;11587;47.064;15.444;2022-08-05T17:09:30;4.30;;;3.23;;
22841;SDS011;11587;47.064;15.444;2022-08-05T17:16:47;5.20;;;3.50;;
22841;SDS011;11587;47.064;15.444;2022-08-05T17:19:13;6.75;;;3.33;;
22841;SDS011;11587;47.064;15.444;2022-08-05T17:21:39;5.30;;;3.55;;
22841;SDS011;11587;47.064;15.444;2022-08-05T17:26:30;6.37;;;3.50;;
22841;SDS011;11587;47.064;15.444;2022-08-05T17:28:56;5.35;;;3.50;;
22841;SDS011;11587;47.064;15.444;2022-08-05T17:31:22;5.05;;;3.67;;
22841;SDS011;11587;47.064;15.444;2022-08-05T17:33:48;5.00;;;3.67;;
22841;SDS011;11587;47.064;15.444;2022-08-05T17:36:14;4.65;;;3.70;;
22841;SDS011;11587;47.064;15.444;2022-08-05T17:38:40;5.47;;;3.70;;
22841;SDS011;11587;47.064;15.444;2022-08-05T17:41:06;5.18;;;3.72;;
22841;SDS011;11587;47.064;15.444;2022-08-05T17:43:33;6.30;;;3.80;;
22841;SDS011;11587;47.064;15.444;2022-08-05T17:45:59;5.10;;;3.78;;
22841;SDS011;11587;47.064;15.444;2022-08-05T17:48:25;7.53;;;3.50;;
22841;SDS011;11587;47.064;15.444;2022-08-05T17:55:41;6.00;;;3.90;;
22841;SDS011;11587;47.064;15.444;2022-08-05T17:58:08;6.07;;;3.90;;
22841;SDS011;11587;47.064;15.444;2022-08-05T18:00:36;4.57;;;3.60;;
22841;SDS011;11587;47.064;15.444;2022-08-05T18:03:06;5.13;;;3.83;;
22841;SDS011;11587;47.064;15.444;2022-08-05T18:05:32;5.05;;;3.70;;
22841;SDS011;11587;47.064;15.444;2022-08-05T18:07:59;5.40;;;3.90;;
22841;SDS011;11587;47.064;15.444;2022-08-05T18:10:25;4.80;;;3.83;;
22841;SDS011;11587;47.064;15.444;2022-08-05T18:12:50;4.95;;;3.70;;
22841;SDS011;11587;47.064;15.444;2022-08-05T18:15:16;7.07;;;4.00;;
22841;SDS011;11587;47.064;15.444;2022-08-05T18:17:42;5.55;;;3.97;;
22841;SDS011;11587;47.064;15.444;2022-08-05T18:22:33;4.47;;;3.60;;
22841;SDS011;11587;47.064;15.444;2022-08-05T18:24:59;6.20;;;4.30;;
22841;SDS011;11587;47.064;15.444;2022-08-05T18:27:25;6.10;;;3.85;;
22841;SDS011;11587;47.064;15.444;2022-08-05T18:32:16;5.90;;;4.10;;
22841;SDS011;11587;47.064;15.444;2022-08-05T18:34:42;7.00;;;4.07;;
22841;SDS011;11587;47.064;15.444;2022-08-05T18:37:08;4.72;;;4.05;;
22841;SDS011;11587;47.064;15.444;2022-08-05T18:39:34;5.53;;;4.03;;
22841;SDS011;11587;47.064;15.444;2022-08-05T18:42:00;4.97;;;3.95;;
22841;SDS011;11587;47.064;15.444;2022-08-05T18:46:51;4.60;;;3.90;;